Shipdham, United Kingdom
Current Conditions -  °F | °C
As of 6:50 PM on Thursday 30 Oct 2014 (Local Time) from EGYM Reporting Station
Haze Haze  
Wind Chill: 59°   Ceiling: Unl
Heat Index: 59°   Visibility: 4mi
Dew Point: 57°   Wind: 8mph
Humidity: 94%   Direction: 150°SSE
Pressure: 30.06"   Gusts: NA
Location:  52.63°N, 0.89°E
Report Text: EGYM 301850Z 15007KT 7000 HZ FEW044 15/14 Q1018 WHT BECMG 4000 HZ GRN
Loading
Personal Weather Stations






























Interactive Weather Map
Tropical Storm Tracking
New forecast layout! Learn more

10-Day Weather Forecast

Advertisements
Track Severe Weather on mobile